createdAt,value
2022-10-23T00:00:51.021Z,1004.79
2022-10-23T00:01:50.973Z,1004.80
2022-10-23T00:02:51.076Z,1004.80
2022-10-23T00:03:50.959Z,1004.81
2022-10-23T00:04:50.943Z,1004.83
2022-10-23T00:05:50.933Z,1004.84
2022-10-23T00:06:50.927Z,1004.86
2022-10-23T00:07:50.914Z,1004.87
2022-10-23T00:08:50.920Z,1004.88
2022-10-23T00:09:50.893Z,1004.87
2022-10-23T00:10:50.880Z,1004.87
2022-10-23T00:11:50.870Z,1004.86
2022-10-23T00:12:50.860Z,1004.86
2022-10-23T00:13:50.841Z,1004.84
2022-10-23T00:14:50.857Z,1004.84
2022-10-23T00:16:50.827Z,1004.84
2022-10-23T00:17:50.796Z,1004.85
2022-10-23T00:18:50.805Z,1004.86
2022-10-23T00:19:50.782Z,1004.85
2022-10-23T00:20:50.768Z,1004.84
2022-10-23T00:21:50.770Z,1004.83
2022-10-23T00:22:50.766Z,1004.83
2022-10-23T00:23:50.740Z,1004.83
2022-10-23T00:24:50.734Z,1004.83
2022-10-23T00:25:50.738Z,1004.82
2022-10-23T00:26:50.708Z,1004.82
2022-10-23T00:27:50.701Z,1004.81
2022-10-23T00:28:50.681Z,1004.79
2022-10-23T00:29:50.713Z,1004.78
2022-10-23T00:30:50.663Z,1004.79
2022-10-23T00:31:50.667Z,1004.78
2022-10-23T00:32:50.632Z,1004.80
2022-10-23T00:33:50.634Z,1004.80
2022-10-23T00:34:50.619Z,1004.80
2022-10-23T00:35:50.610Z,1004.80
2022-10-23T00:36:50.613Z,1004.81
2022-10-23T00:37:50.586Z,1004.81
2022-10-23T00:38:50.577Z,1004.82
2022-10-23T00:39:50.558Z,1004.81
2022-10-23T00:41:50.539Z,1004.77
2022-10-23T00:42:50.542Z,1004.76
2022-10-23T00:43:50.517Z,1004.76
2022-10-23T00:44:50.511Z,1004.77
2022-10-23T00:45:50.489Z,1004.78
2022-10-23T00:46:50.505Z,1004.78
2022-10-23T00:47:50.474Z,1004.77
2022-10-23T00:48:50.464Z,1004.76
2022-10-23T00:49:50.458Z,1004.75
2022-10-23T00:50:50.444Z,1004.75
2022-10-23T00:51:50.427Z,1004.76
2022-10-23T00:52:50.439Z,1004.77
2022-10-23T00:54:01.038Z,1004.75
2022-10-23T00:54:50.414Z,1004.74
2022-10-23T00:55:50.390Z,1004.72
2022-10-23T00:56:50.374Z,1004.68
2022-10-23T00:57:50.389Z,1004.62
2022-10-23T00:58:50.357Z,1004.58
2022-10-23T00:59:50.338Z,1004.55
2022-10-23T01:00:50.334Z,1004.51
2022-10-23T01:01:50.457Z,1004.48
2022-10-23T01:02:50.318Z,1004.46
2022-10-23T01:03:50.326Z,1004.44
2022-10-23T01:04:50.290Z,1004.43
2022-10-23T01:05:50.311Z,1004.44
2022-10-23T01:06:50.269Z,1004.43
2022-10-23T01:07:50.258Z,1004.41
2022-10-23T01:08:50.270Z,1004.39
2022-10-23T01:09:50.235Z,1004.37
2022-10-23T05:01:13.382Z,1003.40
2022-10-23T05:02:14.270Z,1003.40
2022-10-23T05:03:14.242Z,1003.40
2022-10-23T05:04:14.231Z,1003.41
2022-10-23T05:05:14.219Z,1003.40
2022-10-23T05:06:14.226Z,1003.37
2022-10-23T05:07:14.263Z,1003.33
2022-10-23T05:08:17.147Z,1003.28
2022-10-23T05:09:14.191Z,1003.25
2022-10-23T05:10:14.171Z,1003.22
2022-10-23T05:11:14.147Z,1003.21
2022-10-23T05:12:14.165Z,1003.20
2022-10-23T05:13:14.166Z,1003.22
2022-10-23T05:14:15.581Z,1003.25
2022-10-23T05:15:14.111Z,1003.29
2022-10-23T05:16:14.117Z,1003.33
2022-10-23T05:17:14.088Z,1003.36
2022-10-23T05:18:14.099Z,1003.39
2022-10-23T05:19:14.091Z,1003.42
2022-10-23T05:20:14.070Z,1003.44
2022-10-23T05:21:14.047Z,1003.44
2022-10-23T05:22:14.041Z,1003.41
2022-10-23T05:23:14.028Z,1003.38
2022-10-23T05:24:14.012Z,1003.35
2022-10-23T05:25:14.027Z,1003.35
2022-10-23T05:26:13.992Z,1003.35
2022-10-23T05:27:13.981Z,1003.35
2022-10-23T05:28:13.970Z,1003.36
2022-10-23T05:29:13.960Z,1003.38
2022-10-23T05:30:13.972Z,1003.38
2022-10-23T05:31:13.937Z,1003.37
2022-10-23T05:32:13.972Z,1003.35
2022-10-23T05:33:13.924Z,1003.33
2022-10-23T05:34:13.907Z,1003.29
2022-10-23T05:35:13.903Z,1003.27
2022-10-23T05:36:13.848Z,1003.27
2022-10-23T05:37:13.878Z,1003.26
2022-10-23T05:38:13.833Z,1003.24
2022-10-23T05:39:13.803Z,1003.22
2022-10-23T05:40:13.794Z,1003.21
2022-10-23T05:41:13.797Z,1003.21
2022-10-23T05:42:13.769Z,1003.21
2022-10-23T05:43:13.762Z,1003.21
2022-10-23T05:44:13.766Z,1003.21
2022-10-23T05:45:13.736Z,1003.18
2022-10-23T05:46:13.740Z,1003.15
2022-10-23T05:47:13.715Z,1003.13
2022-10-23T05:48:22.813Z,1003.10
2022-10-23T05:49:13.703Z,1003.09
2022-10-23T05:50:13.677Z,1003.08
2022-10-23T05:51:13.673Z,1003.07
2022-10-23T05:52:13.684Z,1003.05
2022-10-23T05:53:13.673Z,1003.03
2022-10-23T05:54:13.638Z,1003.00
2022-10-23T05:55:13.634Z,1002.98
2022-10-23T05:56:13.617Z,1002.97
2022-10-23T05:57:13.708Z,1002.95
2022-10-23T05:58:13.593Z,1002.94
2022-10-23T05:59:13.595Z,1002.96
2022-10-23T06:00:13.593Z,1002.97
2022-10-23T06:01:13.636Z,1002.96
2022-10-23T06:02:13.641Z,1002.95
2022-10-23T06:03:13.573Z,1002.92
2022-10-23T06:04:13.529Z,1002.91
2022-10-23T06:05:13.534Z,1002.89
2022-10-23T06:06:13.510Z,1002.88
2022-10-23T06:07:13.505Z,1002.86
2022-10-23T06:08:13.501Z,1002.86
2022-10-23T06:09:13.507Z,1002.85
2022-10-23T06:10:13.474Z,1002.84
2022-10-23T06:11:13.461Z,1002.83
2022-10-23T06:12:13.449Z,1002.82
2022-10-23T06:13:13.440Z,1002.81
2022-10-23T06:14:13.443Z,1002.81
2022-10-23T06:15:13.432Z,1002.82
2022-10-23T06:16:13.403Z,1002.84
2022-10-23T06:17:13.401Z,1002.86
2022-10-23T06:18:13.393Z,1002.88
2022-10-23T06:19:13.379Z,1002.89
2022-10-23T06:20:13.384Z,1002.88
2022-10-23T06:21:13.356Z,1002.86
2022-10-23T06:22:13.382Z,1002.85
2022-10-23T06:23:13.333Z,1002.84
2022-10-23T06:24:13.332Z,1002.84
2022-10-23T06:25:13.317Z,1002.83
2022-10-23T06:26:13.325Z,1002.83
2022-10-23T06:27:13.293Z,1002.83
2022-10-23T06:28:15.900Z,1002.82
2022-10-23T06:29:13.277Z,1002.79
2022-10-23T06:30:13.259Z,1002.78
2022-10-23T06:31:13.275Z,1002.78
2022-10-23T06:32:13.253Z,1002.82
2022-10-23T06:33:13.235Z,1002.87
2022-10-23T06:34:13.209Z,1002.92
2022-10-23T06:35:13.246Z,1002.94
2022-10-23T06:36:13.190Z,1002.97
2022-10-23T06:37:13.179Z,1002.99
2022-10-23T06:38:13.178Z,1003.01
2022-10-23T06:39:13.172Z,1003.00
2022-10-23T06:40:13.146Z,1002.97
2022-10-23T06:41:13.159Z,1002.95
2022-10-23T06:42:13.129Z,1002.94
2022-10-23T06:43:13.120Z,1002.93
2022-10-23T06:44:13.107Z,1002.91
2022-10-23T06:45:13.098Z,1002.88
2022-10-23T06:46:13.084Z,1002.87
2022-10-23T06:47:13.159Z,1002.85
2022-10-23T06:48:13.072Z,1002.85
2022-10-23T06:49:13.053Z,1002.84
2022-10-23T06:50:15.402Z,1002.86
2022-10-23T06:51:13.033Z,1002.89
2022-10-23T06:52:23.160Z,1002.93
2022-10-23T06:53:13.032Z,1002.95
2022-10-23T06:54:13.013Z,1002.93
2022-10-23T06:55:12.994Z,1002.90
2022-10-23T06:56:12.981Z,1002.87
2022-10-23T06:57:12.987Z,1002.84
2022-10-23T06:58:12.957Z,1002.82
2022-10-23T06:59:12.953Z,1002.80
2022-10-23T07:00:12.940Z,1002.80
2022-10-23T07:01:13.169Z,1002.80
2022-10-23T07:02:12.916Z,1002.79
2022-10-23T07:03:12.935Z,1002.77
2022-10-23T07:04:12.898Z,1002.77
2022-10-23T07:05:13.862Z,1002.79
2022-10-23T07:06:12.874Z,1002.80
2022-10-23T07:07:12.862Z,1002.80
2022-10-23T07:08:12.851Z,1002.80
2022-10-23T07:09:12.842Z,1002.81
2022-10-23T07:11:12.843Z,1002.87
2022-10-23T07:12:12.815Z,1002.93
2022-10-23T07:13:12.799Z,1002.96
2022-10-23T07:14:12.790Z,1002.97
2022-10-23T07:15:12.779Z,1002.97
2022-10-23T07:16:12.808Z,1002.95
2022-10-23T07:17:12.770Z,1002.93
2022-10-23T07:18:12.743Z,1002.93
2022-10-23T07:19:12.759Z,1002.93
2022-10-23T07:20:12.724Z,1002.92
2022-10-23T07:21:12.723Z,1002.89
2022-10-23T07:22:15.721Z,1002.88
2022-10-23T07:23:12.691Z,1002.89
2022-10-23T07:24:12.683Z,1002.90
2022-10-23T07:25:12.697Z,1002.93
2022-10-23T07:26:12.700Z,1002.93
2022-10-23T07:27:12.655Z,1002.93
2022-10-23T07:28:12.640Z,1002.94
2022-10-23T07:29:12.628Z,1002.97
2022-10-23T07:30:12.617Z,1002.97
2022-10-23T07:31:12.629Z,1002.94
2022-10-23T07:32:12.645Z,1002.90
2022-10-23T07:33:12.588Z,1002.88
2022-10-23T07:34:12.572Z,1002.87
2022-10-23T07:35:12.563Z,1002.86
2022-10-23T07:36:12.554Z,1002.86
2022-10-23T07:37:12.543Z,1002.87
2022-10-23T07:38:12.556Z,1002.88
2022-10-23T07:39:12.532Z,1002.84
2022-10-23T07:40:12.509Z,1002.79
2022-10-23T07:41:12.610Z,1002.76
2022-10-23T07:42:12.486Z,1002.76
2022-10-23T07:43:12.487Z,1002.75
2022-10-23T07:44:12.494Z,1002.77
2022-10-23T07:45:12.477Z,1002.79
2022-10-23T07:46:12.462Z,1002.79
2022-10-23T07:47:12.447Z,1002.80
2022-10-23T07:48:12.433Z,1002.82
2022-10-23T07:49:12.421Z,1002.82
2022-10-23T07:50:12.415Z,1002.82
2022-10-23T07:51:12.425Z,1002.81
2022-10-23T07:52:12.384Z,1002.80
2022-10-23T07:53:12.378Z,1002.80
2022-10-23T07:54:12.372Z,1002.80
2022-10-23T07:55:12.354Z,1002.79
2022-10-23T07:56:12.333Z,1002.81
2022-10-23T07:57:12.352Z,1002.84
2022-10-23T07:58:12.322Z,1002.83
2022-10-23T07:59:12.314Z,1002.83
2022-10-23T08:00:12.322Z,1002.82
2022-10-23T08:01:12.316Z,1002.81
2022-10-23T08:02:12.340Z,1002.78
2022-10-23T08:03:12.272Z,1002.76
2022-10-23T08:04:12.259Z,1002.75
2022-10-23T08:05:12.279Z,1002.73
2022-10-23T08:06:12.241Z,1002.73
2022-10-23T08:07:12.229Z,1002.72
2022-10-23T08:08:12.248Z,1002.70
2022-10-23T08:09:12.207Z,1002.68
2022-10-23T08:10:12.190Z,1002.67
2022-10-23T08:11:12.187Z,1002.69
2022-10-23T08:12:12.170Z,1002.71
2022-10-23T08:13:12.168Z,1002.74
2022-10-23T08:14:12.163Z,1002.73
2022-10-23T08:15:12.137Z,1002.71
2022-10-23T08:16:12.135Z,1002.74
2022-10-23T08:17:12.117Z,1002.76
2022-10-23T08:18:12.105Z,1002.77
2022-10-23T08:19:12.120Z,1002.75
2022-10-23T08:20:12.079Z,1002.71
2022-10-23T08:21:12.099Z,1002.68
2022-10-23T08:22:12.068Z,1002.69
2022-10-23T08:23:12.054Z,1002.73
2022-10-23T08:24:12.051Z,1002.78
2022-10-23T08:25:12.146Z,1002.78
2022-10-23T08:26:12.015Z,1002.77
2022-10-23T08:27:12.006Z,1002.77
2022-10-23T08:28:11.993Z,1002.75
2022-10-23T08:29:11.989Z,1002.72
2022-10-23T08:30:11.991Z,1002.69
2022-10-23T08:31:12.006Z,1002.66
2022-10-23T08:32:11.953Z,1002.64
2022-10-23T08:33:11.957Z,1002.63
2022-10-23T08:34:11.958Z,1002.66
2022-10-23T08:35:11.928Z,1002.69
2022-10-23T08:36:11.929Z,1002.71
2022-10-23T08:37:11.909Z,1002.72
2022-10-23T08:38:11.910Z,1002.71
2022-10-23T08:39:11.881Z,1002.70
2022-10-23T08:40:11.869Z,1002.67
2022-10-23T08:41:11.871Z,1002.67
2022-10-23T08:42:11.851Z,1002.64
2022-10-23T08:43:11.838Z,1002.60
2022-10-23T08:44:11.852Z,1002.57
2022-10-23T08:45:11.821Z,1002.54
2022-10-23T08:46:11.800Z,1002.52
2022-10-23T08:47:11.802Z,1002.50
2022-10-23T08:48:11.781Z,1002.49
2022-10-23T08:49:11.779Z,1002.47
2022-10-23T08:50:11.797Z,1002.45
2022-10-23T08:51:11.751Z,1002.43
2022-10-23T08:52:14.006Z,1002.43
2022-10-23T08:53:11.733Z,1002.42
2022-10-23T08:54:11.721Z,1002.43
2022-10-23T08:55:11.720Z,1002.43
2022-10-23T08:56:11.708Z,1002.41
2022-10-23T08:57:11.691Z,1002.41
2022-10-23T08:58:11.679Z,1002.40
2022-10-23T08:59:11.669Z,1002.39
2022-10-23T09:00:11.654Z,1002.39
2022-10-23T09:01:11.837Z,1002.38
2022-10-23T09:02:11.755Z,1002.39
2022-10-23T09:03:11.625Z,1002.39
2022-10-23T09:04:11.612Z,1002.38
2022-10-23T09:05:11.603Z,1002.37
2022-10-23T09:06:11.586Z,1002.36
2022-10-23T09:07:11.596Z,1002.36
2022-10-23T09:08:11.575Z,1002.35
2022-10-23T09:09:11.558Z,1002.37
2022-10-23T09:10:11.551Z,1002.40
2022-10-23T09:11:11.545Z,1002.42
2022-10-23T09:12:11.527Z,1002.41
2022-10-23T09:13:11.550Z,1002.40
2022-10-23T09:14:11.501Z,1002.40
2022-10-23T09:15:11.496Z,1002.42
2022-10-23T09:16:11.483Z,1002.43
2022-10-23T09:17:11.513Z,1002.45
2022-10-23T09:18:11.506Z,1002.46
2022-10-23T09:19:12.187Z,1002.45
2022-10-23T09:20:11.444Z,1002.42
2022-10-23T09:21:11.431Z,1002.38
2022-10-23T09:22:11.421Z,1002.38
2022-10-23T09:23:11.408Z,1002.37
2022-10-23T09:24:11.411Z,1002.34
2022-10-23T09:25:11.407Z,1002.27
2022-10-23T09:26:11.381Z,1002.24
2022-10-23T09:27:11.366Z,1002.22
2022-10-23T09:28:11.375Z,1002.21
2022-10-23T09:29:11.367Z,1002.21
2022-10-23T09:30:11.347Z,1002.20
2022-10-23T09:31:11.324Z,1002.20
2022-10-23T09:32:11.347Z,1002.19
2022-10-23T09:33:11.309Z,1002.19
2022-10-23T09:34:11.854Z,1002.18
2022-10-23T09:35:11.286Z,1002.20
2022-10-23T09:36:11.283Z,1002.21
2022-10-23T09:37:11.269Z,1002.22
2022-10-23T09:38:11.240Z,1002.20
2022-10-23T09:39:11.255Z,1002.19
2022-10-23T09:40:11.241Z,1002.20
2022-10-23T09:41:11.235Z,1002.22
2022-10-23T09:42:11.220Z,1002.26
2022-10-23T09:43:11.196Z,1002.31
2022-10-23T09:44:11.179Z,1002.34
2022-10-23T09:45:11.186Z,1002.30
2022-10-23T09:46:11.165Z,1002.28
2022-10-23T09:47:11.218Z,1002.25
2022-10-23T09:48:11.137Z,1002.26
2022-10-23T09:49:11.138Z,1002.26
2022-10-23T09:50:11.131Z,1002.27
2022-10-23T09:51:11.115Z,1002.27
2022-10-23T09:52:11.140Z,1002.28
2022-10-23T09:53:11.089Z,1002.28
2022-10-23T09:54:11.081Z,1002.27
2022-10-23T09:55:11.061Z,1002.28
2022-10-23T09:56:11.055Z,1002.27
2022-10-23T09:57:11.050Z,1002.28
2022-10-23T09:58:11.056Z,1002.31
2022-10-23T09:59:11.023Z,1002.35
2022-10-23T10:00:11.018Z,1002.37
2022-10-23T10:01:11.206Z,1002.33
2022-10-23T10:02:11.138Z,1002.29
2022-10-23T10:03:10.981Z,1002.26
2022-10-23T10:04:10.984Z,1002.22
2022-10-23T10:05:11.001Z,1002.18
2022-10-23T10:06:10.949Z,1002.13
2022-10-23T10:07:10.939Z,1002.11
2022-10-23T10:08:10.930Z,1002.08
2022-10-23T10:09:10.920Z,1002.10
2022-10-23T10:10:10.909Z,1002.14
2022-10-23T10:11:10.904Z,1002.13
2022-10-23T10:12:10.885Z,1002.09
2022-10-23T10:13:14.276Z,1002.06
2022-10-23T10:14:10.862Z,1002.07
2022-10-23T10:15:10.865Z,1002.08
2022-10-23T10:16:10.842Z,1002.08
2022-10-23T10:17:10.828Z,1002.06
2022-10-23T10:18:10.844Z,1002.04
2022-10-23T10:19:10.811Z,1002.05
2022-10-23T10:20:10.817Z,1002.05
2022-10-23T10:21:10.791Z,1002.02
2022-10-23T10:22:10.825Z,1002.00
2022-10-23T10:23:10.768Z,1001.98
2022-10-23T10:24:10.765Z,1001.95
2022-10-23T10:25:10.777Z,1001.92
2022-10-23T10:26:10.742Z,1001.90
2022-10-23T10:27:10.725Z,1001.86
2022-10-23T10:28:10.728Z,1001.82
2022-10-23T10:29:10.735Z,1001.80
2022-10-23T10:30:10.697Z,1001.78
2022-10-23T10:31:10.675Z,1001.77
2022-10-23T10:32:10.676Z,1001.74
2022-10-23T10:33:10.677Z,1001.71
2022-10-23T10:34:10.662Z,1001.72
2022-10-23T10:35:10.640Z,1001.71
2022-10-23T10:36:10.632Z,1001.68
2022-10-23T10:37:10.623Z,1001.64
2022-10-23T10:38:10.609Z,1001.67
2022-10-23T10:39:10.611Z,1001.69
2022-10-23T10:40:10.587Z,1001.71
2022-10-23T10:41:10.616Z,1001.72
2022-10-23T10:42:10.569Z,1001.73
2022-10-23T10:43:10.557Z,1001.72
2022-10-23T10:44:10.544Z,1001.71
2022-10-23T10:45:10.529Z,1001.70
2022-10-23T10:46:10.557Z,1001.69
2022-10-23T10:47:10.527Z,1001.69
2022-10-23T10:48:10.522Z,1001.69
2022-10-23T10:49:10.484Z,1001.70
2022-10-23T10:50:10.479Z,1001.70
2022-10-23T10:51:10.469Z,1001.67
2022-10-23T10:52:10.469Z,1001.64
2022-10-23T10:53:10.445Z,1001.61
2022-10-23T10:54:10.472Z,1001.62
2022-10-23T10:55:10.424Z,1001.67
2022-10-23T10:57:10.431Z,1001.68
2022-10-23T10:58:10.391Z,1001.68
2022-10-23T10:59:10.381Z,1001.67
2022-10-23T11:00:10.397Z,1001.65
2022-10-23T11:01:10.454Z,1001.61
2022-10-23T11:02:10.504Z,1001.58
2022-10-23T11:03:10.337Z,1001.53
2022-10-23T11:04:10.351Z,1001.50
2022-10-23T11:05:10.320Z,1001.50
2022-10-23T11:06:10.315Z,1001.49
2022-10-23T11:07:10.299Z,1001.46
2022-10-23T11:08:10.284Z,1001.44
2022-10-23T11:09:20.291Z,1001.43
2022-10-23T11:10:10.348Z,1001.43
2022-10-23T11:11:10.250Z,1001.42
2022-10-23T11:12:10.243Z,1001.40
2022-10-23T11:13:10.258Z,1001.40
2022-10-23T11:14:10.290Z,1001.39
2022-10-23T11:15:10.213Z,1001.38
2022-10-23T11:16:10.223Z,1001.36
2022-10-23T11:17:10.188Z,1001.31
2022-10-23T11:18:10.185Z,1001.24
2022-10-23T11:19:16.173Z,1001.19
2022-10-23T11:20:10.159Z,1001.18
2022-10-23T11:21:10.776Z,1001.18
2022-10-23T11:22:10.147Z,1001.18
2022-10-23T11:23:10.126Z,1001.19
2022-10-23T11:25:10.104Z,1001.16
2022-10-23T11:26:10.111Z,1001.13
2022-10-23T11:27:10.116Z,1001.09
2022-10-23T11:28:10.808Z,1001.05
2022-10-23T11:29:10.113Z,1001.06
2022-10-23T11:30:10.095Z,1001.09
2022-10-23T11:31:12.047Z,1001.10
2022-10-23T11:32:10.056Z,1001.13
2022-10-23T11:33:10.036Z,1001.08
2022-10-23T11:34:10.010Z,1001.01
2022-10-23T11:35:10.012Z,1000.93
2022-10-23T11:36:09.987Z,1000.89
2022-10-23T11:37:10.006Z,1000.86
2022-10-23T11:38:09.966Z,1000.85
2022-10-23T11:39:09.992Z,1000.90
2022-10-23T11:40:10.058Z,1000.95
2022-10-23T11:41:09.937Z,1000.96
2022-10-23T11:42:09.945Z,1000.99
2022-10-23T11:43:09.909Z,1001.02
2022-10-23T11:44:09.914Z,1001.03
2022-10-23T11:45:09.908Z,1001.03
2022-10-23T11:46:09.912Z,1001.05
2022-10-23T11:47:09.899Z,1001.09
2022-10-23T11:48:09.862Z,1001.14
2022-10-23T11:49:09.903Z,1001.17
2022-10-23T11:50:09.843Z,1001.14
2022-10-23T11:51:09.830Z,1001.09
2022-10-23T11:52:09.818Z,1001.05
2022-10-23T11:53:13.986Z,1001.01
2022-10-23T11:54:09.804Z,1000.95
2022-10-23T11:55:10.093Z,1000.88
2022-10-23T11:56:09.774Z,1000.84
2022-10-23T11:57:10.694Z,1000.80
2022-10-23T11:58:09.761Z,1000.77
2022-10-23T11:59:09.759Z,1000.74
2022-10-23T12:00:09.755Z,1000.72
2022-10-23T12:01:09.765Z,1000.71
2022-10-23T12:02:09.811Z,1000.69
2022-10-23T12:03:09.701Z,1000.66
2022-10-23T12:04:09.840Z,1000.66
2022-10-23T12:05:09.686Z,1000.66
2022-10-23T12:06:09.684Z,1000.64
2022-10-23T12:07:09.674Z,1000.64
2022-10-23T12:08:09.656Z,1000.66
2022-10-23T12:09:09.638Z,1000.70
2022-10-23T12:10:09.636Z,1000.73
2022-10-23T12:11:09.625Z,1000.74
2022-10-23T12:12:09.631Z,1000.77
2022-10-23T12:13:09.589Z,1000.78
2022-10-23T12:14:09.652Z,1000.78
2022-10-23T12:15:09.576Z,1000.78
2022-10-23T12:16:09.562Z,1000.72
2022-10-23T12:17:09.551Z,1000.66
2022-10-23T12:18:09.587Z,1000.61
2022-10-23T12:19:09.539Z,1000.58
2022-10-23T12:20:09.515Z,1000.57
2022-10-23T12:21:09.505Z,1000.56
2022-10-23T12:22:09.494Z,1000.51
2022-10-23T12:23:09.572Z,1000.43
2022-10-23T12:24:09.477Z,1000.38
2022-10-23T12:25:09.479Z,1000.35
2022-10-23T12:26:09.512Z,1000.36
2022-10-23T12:27:09.492Z,1000.38
2022-10-23T12:28:09.437Z,1000.36
2022-10-23T12:29:09.435Z,1000.30
2022-10-23T12:30:09.417Z,1000.23
2022-10-23T12:31:10.341Z,1000.21
2022-10-23T12:32:09.408Z,1000.18
2022-10-23T12:33:11.840Z,1000.13
2022-10-23T12:34:09.485Z,1000.09
2022-10-23T12:35:09.361Z,1000.06
2022-10-23T12:36:09.486Z,1000.06
2022-10-23T12:37:09.339Z,1000.07
2022-10-23T12:38:09.326Z,1000.06
2022-10-23T12:39:09.362Z,1000.07
2022-10-23T12:40:09.321Z,1000.07
2022-10-23T12:41:09.305Z,1000.09
2022-10-23T12:42:09.286Z,1000.12
2022-10-23T12:43:09.273Z,1000.14
2022-10-23T12:44:09.265Z,1000.16
2022-10-23T12:45:09.258Z,1000.15
2022-10-23T12:46:09.260Z,1000.11
2022-10-23T12:47:09.231Z,1000.07
2022-10-23T12:48:09.224Z,1000.02
2022-10-23T12:49:09.216Z,999.99
2022-10-23T12:50:09.277Z,999.96
2022-10-23T12:51:09.181Z,999.90
2022-10-23T12:52:09.197Z,999.86
2022-10-23T12:53:09.160Z,999.83
2022-10-23T12:54:09.157Z,999.78
2022-10-23T12:55:09.147Z,999.74
2022-10-23T12:56:09.141Z,999.74
2022-10-23T12:57:09.120Z,999.77
2022-10-23T12:58:09.133Z,999.80
2022-10-23T12:59:09.100Z,999.79
2022-10-23T13:00:09.167Z,999.76
2022-10-23T13:01:09.189Z,999.71
2022-10-23T13:02:09.166Z,999.66
2022-10-23T13:03:09.106Z,999.63
2022-10-23T13:04:09.131Z,999.65
2022-10-23T13:05:09.036Z,999.66
2022-10-23T13:06:09.026Z,999.66
2022-10-23T13:07:09.019Z,999.65
2022-10-23T13:08:09.012Z,999.62
2022-10-23T13:09:09.017Z,999.59
2022-10-23T13:10:08.992Z,999.56
2022-10-23T13:11:09.008Z,999.53
2022-10-23T13:12:08.960Z,999.52
2022-10-23T13:13:08.951Z,999.53
2022-10-23T13:14:08.949Z,999.51
2022-10-23T13:15:08.945Z,999.49
2022-10-23T13:16:08.918Z,999.45
2022-10-23T13:17:08.939Z,999.43
2022-10-23T13:18:08.910Z,999.42
2022-10-23T13:19:08.889Z,999.43
2022-10-23T13:20:09.003Z,999.44
2022-10-23T13:21:08.863Z,999.45
2022-10-23T13:22:08.861Z,999.45
2022-10-23T13:23:08.984Z,999.46
2022-10-23T13:24:08.829Z,999.47
2022-10-23T13:25:08.825Z,999.47
2022-10-23T13:26:08.817Z,999.46
2022-10-23T13:27:08.797Z,999.43
2022-10-23T13:28:08.827Z,999.39
2022-10-23T13:29:09.714Z,999.37
2022-10-23T13:30:10.736Z,999.33
2022-10-23T13:31:08.771Z,999.30
2022-10-23T13:32:08.759Z,999.30
2022-10-23T13:33:08.795Z,999.28
2022-10-23T13:34:08.765Z,999.24
2022-10-23T13:35:21.527Z,999.20
2022-10-23T13:36:08.798Z,999.18
2022-10-23T13:37:08.769Z,999.17
2022-10-23T13:38:08.719Z,999.17
2022-10-23T13:39:08.716Z,999.17
2022-10-23T13:40:09.490Z,999.16
2022-10-23T13:41:08.645Z,999.18
2022-10-23T13:42:08.639Z,999.17
2022-10-23T13:43:08.644Z,999.16
2022-10-23T13:44:08.632Z,999.15
2022-10-23T13:45:08.609Z,999.15
2022-10-23T13:47:08.584Z,999.11
2022-10-23T13:48:08.579Z,999.10
2022-10-23T13:49:08.563Z,999.08
2022-10-23T13:50:08.574Z,999.05
2022-10-23T13:51:08.576Z,999.01
2022-10-23T13:52:08.540Z,998.99
2022-10-23T13:53:08.518Z,998.99
2022-10-23T13:54:08.517Z,999.00
2022-10-23T13:55:08.504Z,998.99
2022-10-23T13:56:08.494Z,998.97
2022-10-23T13:57:08.497Z,998.95
2022-10-23T13:58:08.478Z,998.94
2022-10-23T13:59:08.467Z,998.93
2022-10-23T14:00:08.464Z,998.93
2022-10-23T14:01:08.588Z,998.92
2022-10-23T14:02:08.541Z,998.90
2022-10-23T14:03:08.437Z,998.86
2022-10-23T14:04:08.400Z,998.85
2022-10-23T14:05:08.413Z,998.82
2022-10-23T14:06:08.394Z,998.81
2022-10-23T14:07:08.419Z,998.80
2022-10-23T14:08:08.370Z,998.78
2022-10-23T14:09:08.371Z,998.76
2022-10-23T14:10:08.358Z,998.76
2022-10-23T14:11:08.375Z,998.75
2022-10-23T14:12:08.360Z,998.76
2022-10-23T14:13:08.558Z,998.76
2022-10-23T14:14:08.316Z,998.77
2022-10-23T14:15:08.288Z,998.78
2022-10-23T14:16:08.281Z,998.82
2022-10-23T14:17:08.268Z,998.85
2022-10-23T14:18:08.559Z,998.86
2022-10-23T14:19:08.272Z,998.86
2022-10-23T14:20:08.399Z,998.88
2022-10-23T14:21:08.227Z,998.88
2022-10-23T14:22:08.251Z,998.86
2022-10-23T14:23:08.256Z,998.85
2022-10-23T14:24:08.224Z,998.86
2022-10-23T14:25:08.196Z,998.86
2022-10-23T14:26:08.173Z,998.86
2022-10-23T14:27:08.176Z,998.87
2022-10-23T14:28:08.224Z,998.87
2022-10-23T14:29:10.852Z,998.85
2022-10-23T14:30:08.135Z,998.83
2022-10-23T14:31:08.144Z,998.80
2022-10-23T14:32:08.106Z,998.80
2022-10-23T14:33:08.102Z,998.79
2022-10-23T14:34:08.098Z,998.76
2022-10-23T14:35:08.103Z,998.75
2022-10-23T14:36:08.208Z,998.72
2022-10-23T14:37:09.282Z,998.69
2022-10-23T14:38:08.061Z,998.66
2022-10-23T14:39:08.035Z,998.63
2022-10-23T14:40:08.034Z,998.62
2022-10-23T14:41:08.030Z,998.59
2022-10-23T14:42:08.002Z,998.56
2022-10-23T14:43:07.996Z,998.53
2022-10-23T14:44:08.001Z,998.51
2022-10-23T14:45:07.976Z,998.50
2022-10-23T14:46:07.955Z,998.48
2022-10-23T14:47:07.948Z,998.46
2022-10-23T14:48:07.964Z,998.46
2022-10-23T14:49:07.936Z,998.47
2022-10-23T14:50:07.943Z,998.47
2022-10-23T14:51:07.979Z,998.46
2022-10-23T14:52:07.894Z,998.47
2022-10-23T14:53:07.889Z,998.49
2022-10-23T14:54:07.876Z,998.49
2022-10-23T14:55:07.872Z,998.50
2022-10-23T14:56:07.853Z,998.49
2022-10-23T14:57:07.861Z,998.49
2022-10-23T14:58:07.829Z,998.48
2022-10-23T14:59:07.828Z,998.47
2022-10-23T15:00:07.852Z,998.49
2022-10-23T15:01:08.094Z,998.48
2022-10-23T15:02:07.788Z,998.48
2022-10-23T15:03:07.795Z,998.48
2022-10-23T15:04:07.775Z,998.47
2022-10-23T15:05:07.786Z,998.48
2022-10-23T15:06:07.748Z,998.45
2022-10-23T15:07:07.740Z,998.42
2022-10-23T15:08:07.718Z,998.36
2022-10-23T15:09:07.728Z,998.32
2022-10-23T15:10:07.761Z,998.27
2022-10-23T15:11:10.276Z,998.24
2022-10-23T15:12:07.702Z,998.22
2022-10-23T15:13:07.674Z,998.20
2022-10-23T15:14:07.656Z,998.21
2022-10-23T15:15:07.668Z,998.20
2022-10-23T15:16:07.634Z,998.20
2022-10-23T15:17:09.723Z,998.19
2022-10-23T15:18:07.667Z,998.18
2022-10-23T15:19:08.031Z,998.13
2022-10-23T15:20:07.596Z,998.08
2022-10-23T15:21:07.589Z,998.06
2022-10-23T15:22:07.574Z,998.04
2022-10-23T15:23:07.562Z,998.06
2022-10-23T15:24:07.573Z,998.07
2022-10-23T15:25:07.549Z,998.08
2022-10-23T15:26:07.530Z,998.09
2022-10-23T15:27:07.528Z,998.08
2022-10-23T15:28:07.542Z,998.06
2022-10-23T15:29:07.500Z,998.03
2022-10-23T15:30:07.484Z,998.00
2022-10-23T15:31:07.484Z,997.95
2022-10-23T15:32:07.468Z,997.92
2022-10-23T15:33:07.466Z,997.91
2022-10-23T15:34:07.469Z,997.93
2022-10-23T15:35:07.471Z,997.93
2022-10-23T15:36:07.435Z,997.93
2022-10-23T15:37:07.420Z,997.94
2022-10-23T15:38:07.429Z,997.97
2022-10-23T15:39:07.402Z,997.97
2022-10-23T15:40:07.421Z,998.05
2022-10-23T15:41:07.385Z,998.02
2022-10-23T15:42:07.492Z,997.95
2022-10-23T15:43:10.351Z,997.94
2022-10-23T15:44:07.603Z,997.94
2022-10-23T15:45:07.370Z,997.92
2022-10-23T15:46:07.382Z,997.88
2022-10-23T15:47:07.311Z,997.84
2022-10-23T15:48:08.136Z,997.82
2022-10-23T15:49:07.294Z,997.82
2022-10-23T15:50:08.083Z,997.81
2022-10-23T15:51:07.268Z,997.81
2022-10-23T15:52:07.346Z,997.80
2022-10-23T15:53:07.241Z,997.80
2022-10-23T15:54:07.229Z,997.80
2022-10-23T15:55:07.276Z,997.81
2022-10-23T15:56:07.209Z,997.77
2022-10-23T15:57:07.247Z,997.71
2022-10-23T15:58:07.268Z,997.66
2022-10-23T15:59:07.352Z,997.63
2022-10-23T16:00:07.169Z,997.60
2022-10-23T16:01:07.459Z,997.59
2022-10-23T16:02:07.413Z,997.60
2022-10-23T16:03:07.403Z,997.60
2022-10-23T16:04:07.152Z,997.58
2022-10-23T16:05:07.179Z,997.56
2022-10-23T16:06:07.122Z,997.56
2022-10-23T16:07:07.093Z,997.54
2022-10-23T16:08:07.173Z,997.53